createdAt,value
2022-12-12T00:02:10.483Z,14.07
2022-12-12T00:04:36.930Z,12.88
2022-12-12T00:07:03.508Z,14.95
2022-12-12T00:09:29.939Z,13.48
2022-12-12T00:11:56.374Z,13.18
2022-12-12T00:14:22.900Z,14.75
2022-12-12T00:16:49.375Z,17.67
2022-12-12T00:19:16.960Z,15.60
2022-12-12T00:21:43.445Z,14.02
2022-12-12T00:24:10.526Z,13.50
2022-12-12T00:26:36.995Z,12.05
2022-12-12T00:29:04.257Z,15.15
2022-12-12T00:31:30.980Z,11.60
2022-12-12T00:33:57.780Z,13.93
2022-12-12T00:36:26.628Z,13.30
2022-12-12T00:38:53.437Z,13.38
2022-12-12T00:41:20.175Z,15.90
2022-12-12T00:43:46.733Z,16.08
2022-12-12T00:46:14.409Z,13.48
2022-12-12T00:48:40.962Z,16.10
2022-12-12T00:51:09.232Z,20.00
2022-12-12T00:53:36.844Z,17.15
2022-12-12T00:56:03.573Z,17.80
2022-12-12T00:58:30.368Z,16.90
2022-12-12T01:00:56.869Z,18.17
2022-12-12T01:03:23.409Z,16.52
2022-12-12T01:05:49.873Z,16.33
2022-12-12T01:08:16.568Z,14.82
2022-12-12T01:10:43.039Z,17.10
2022-12-12T01:13:09.478Z,15.52
2022-12-12T01:15:35.896Z,16.50
2022-12-12T01:18:02.448Z,17.00
2022-12-12T01:20:29.076Z,15.82
2022-12-12T01:22:56.729Z,18.92
2022-12-12T01:25:23.540Z,17.48
2022-12-12T01:27:50.344Z,18.13
2022-12-12T01:30:18.633Z,16.77
2022-12-12T01:32:45.526Z,18.15
2022-12-12T01:35:12.329Z,19.15
2022-12-12T01:37:40.089Z,17.85
2022-12-12T01:40:08.129Z,20.05
2022-12-12T01:42:34.958Z,16.80
2022-12-12T01:45:01.741Z,21.95
2022-12-12T01:47:28.352Z,18.88
2022-12-12T01:49:54.742Z,16.67
2022-12-12T01:52:23.347Z,20.30
2022-12-12T01:54:51.683Z,19.08
2022-12-12T01:57:21.230Z,16.98
2022-12-12T01:59:47.854Z,17.35
2022-12-12T02:02:14.442Z,28.45
2022-12-12T02:04:41.966Z,16.33
2022-12-12T02:07:08.578Z,16.63
2022-12-12T02:09:36.012Z,17.27
2022-12-12T02:12:02.927Z,15.60
2022-12-12T02:14:34.151Z,15.75
2022-12-12T02:17:12.062Z,16.13
2022-12-12T02:19:57.224Z,15.95
2022-12-12T02:22:42.940Z,15.68
2022-12-12T02:25:27.938Z,15.35
2022-12-12T02:28:13.087Z,14.82
2022-12-12T02:30:58.401Z,17.27
2022-12-12T02:33:27.853Z,17.13
2022-12-12T02:36:06.794Z,18.30
2022-12-12T02:39:05.930Z,15.73
2022-12-12T02:41:43.309Z,15.13
2022-12-12T02:44:24.971Z,14.95
2022-12-12T02:46:52.070Z,16.08
2022-12-12T02:49:22.613Z,15.50
2022-12-12T02:51:50.798Z,14.73
2022-12-12T02:54:19.641Z,16.15
2022-12-12T02:56:51.280Z,14.95
2022-12-12T02:59:21.971Z,16.48
2022-12-12T03:01:54.303Z,15.05
2022-12-12T03:04:45.735Z,16.67
2022-12-12T03:07:49.389Z,15.55
2022-12-12T03:10:31.120Z,15.15
2022-12-12T03:13:06.411Z,15.48
2022-12-12T03:15:45.218Z,15.13
2022-12-12T03:18:11.788Z,16.38
2022-12-12T03:20:50.598Z,15.48
2022-12-12T03:23:25.488Z,16.63
2022-12-12T03:25:56.267Z,14.30
2022-12-12T03:28:38.650Z,16.27
2022-12-12T03:31:07.794Z,16.42
2022-12-12T03:33:34.806Z,15.73
2022-12-12T03:36:10.655Z,16.10
2022-12-12T03:38:40.309Z,16.75
2022-12-12T03:41:10.075Z,16.83
2022-12-12T03:43:43.896Z,14.70
2022-12-12T03:46:22.990Z,15.10
2022-12-12T03:49:01.647Z,15.55
2022-12-12T03:51:29.730Z,16.00
2022-12-12T03:53:59.442Z,17.35
2022-12-12T03:56:30.620Z,17.75
2022-12-12T03:59:07.433Z,17.67
2022-12-12T04:01:41.280Z,14.30
2022-12-12T04:04:08.012Z,14.90
2022-12-12T04:06:39.698Z,13.57
2022-12-12T04:09:27.124Z,16.60
2022-12-12T04:12:12.212Z,15.93
2022-12-12T04:14:41.879Z,17.23
2022-12-12T04:17:11.469Z,16.38
2022-12-12T04:20:02.057Z,13.52
2022-12-12T04:22:49.672Z,16.40
2022-12-12T04:25:26.192Z,15.07
2022-12-12T04:27:54.514Z,15.15
2022-12-12T04:30:21.065Z,16.45
2022-12-12T04:32:53.830Z,15.10
2022-12-12T04:37:47.500Z,14.52
2022-12-12T04:40:20.102Z,14.20
2022-12-12T04:42:50.782Z,15.02
2022-12-12T04:45:20.179Z,16.80
2022-12-12T04:47:48.218Z,16.95
2022-12-12T04:50:16.313Z,16.40
2022-12-12T04:52:44.527Z,16.20
2022-12-12T04:55:17.859Z,16.48
2022-12-12T04:57:47.505Z,18.52
2022-12-12T05:00:14.514Z,18.77
2022-12-12T05:02:45.918Z,20.33
2022-12-12T05:05:19.875Z,22.77
2022-12-12T05:07:52.478Z,20.05
2022-12-12T05:10:19.672Z,23.85
2022-12-12T05:12:50.898Z,21.00
2022-12-12T05:15:18.981Z,18.63
2022-12-12T05:17:52.530Z,18.33
2022-12-12T05:20:19.277Z,17.73
2022-12-12T05:22:46.121Z,14.30
2022-12-12T05:25:13.221Z,16.77
2022-12-12T05:27:40.077Z,15.13
2022-12-12T05:30:07.278Z,16.63
2022-12-12T05:32:34.023Z,15.95
2022-12-12T05:35:00.872Z,17.80
2022-12-12T05:37:27.924Z,16.35
2022-12-12T05:39:54.556Z,16.73
2022-12-12T05:42:21.184Z,16.33
2022-12-12T05:44:47.739Z,17.52
2022-12-12T05:47:14.683Z,19.25
2022-12-12T05:49:41.385Z,17.52
2022-12-12T05:52:08.341Z,16.00
2022-12-12T05:54:35.392Z,16.33
2022-12-12T05:57:02.457Z,16.30
2022-12-12T05:59:31.080Z,14.48
2022-12-12T06:01:57.711Z,14.60
2022-12-12T06:04:24.395Z,14.70
2022-12-12T06:06:51.153Z,14.38
2022-12-12T06:09:18.034Z,14.88
2022-12-12T06:11:44.549Z,17.08
2022-12-12T06:14:11.183Z,13.98
2022-12-12T06:16:37.792Z,15.52
2022-12-12T06:19:04.601Z,15.05
2022-12-12T06:21:32.171Z,13.02
2022-12-12T06:23:59.105Z,14.68
2022-12-12T06:26:25.793Z,16.55
2022-12-12T06:28:52.429Z,15.70
2022-12-12T06:31:20.332Z,15.43
2022-12-12T06:33:47.003Z,13.88
2022-12-12T06:36:27.758Z,15.15
2022-12-12T06:38:56.413Z,15.40
2022-12-12T06:41:24.199Z,16.95
2022-12-12T06:43:51.706Z,14.70
2022-12-12T06:46:20.353Z,17.17
2022-12-12T06:48:47.775Z,15.73
2022-12-12T06:51:16.874Z,15.23
2022-12-12T06:53:44.038Z,15.85
2022-12-12T06:56:13.945Z,14.27
2022-12-12T07:15:23.814Z,19.50
2022-12-12T07:21:08.453Z,16.77
2022-12-12T07:23:48.145Z,17.55
2022-12-12T07:26:31.406Z,18.52
2022-12-12T07:29:08.334Z,16.23
2022-12-12T07:31:36.792Z,16.90
2022-12-12T07:34:05.369Z,18.58
2022-12-12T07:36:35.187Z,17.92
2022-12-12T07:39:07.180Z,18.88
2022-12-12T07:41:47.144Z,17.83
2022-12-12T07:44:27.032Z,19.55
2022-12-12T07:46:55.399Z,17.85
2022-12-12T07:49:23.050Z,19.73
2022-12-12T07:51:50.973Z,19.83
2022-12-12T07:54:19.734Z,19.13
2022-12-12T07:56:47.610Z,20.20
2022-12-12T07:59:21.454Z,18.92
2022-12-12T08:01:49.818Z,19.83
2022-12-12T08:04:22.810Z,21.95
2022-12-12T08:06:54.412Z,18.65
2022-12-12T08:09:29.003Z,18.90
2022-12-12T08:11:58.808Z,18.27
2022-12-12T08:14:38.314Z,18.55
2022-12-12T08:17:07.826Z,17.67
2022-12-12T08:19:39.195Z,18.67
2022-12-12T08:22:09.032Z,18.45
2022-12-12T08:24:37.413Z,18.25
2022-12-12T08:27:05.209Z,20.40
2022-12-12T08:29:32.862Z,22.98
2022-12-12T08:32:00.259Z,19.25
2022-12-12T08:34:27.476Z,21.77
2022-12-12T08:36:57.108Z,21.33
2022-12-12T08:39:24.446Z,19.70
2022-12-12T08:41:53.805Z,22.58
2022-12-12T08:44:21.374Z,23.63
2022-12-12T08:46:49.393Z,20.23
2022-12-12T08:49:16.693Z,22.48
2022-12-12T08:51:43.845Z,29.63
2022-12-12T08:54:12.865Z,25.38
2022-12-12T08:56:41.452Z,38.58
2022-12-12T09:02:19.719Z,25.38
